Time;durP1;ratioP1;P1;durP2;ratioP2;P2;SDS_P1;SDS_P2;PMS_P1;PMS_P2;Temp;Humidity;BMP_temperature;BMP_pressure;BME280_temperature;BME280_humidity;BME280_pressure;Samples;Min_cycle;Max_cycle;Signal;HPM_P1;HPM_P2
2021/01/04 00:00:23;;;;;;;48.45;22.35;;;;;;;1.92;87.00;100714.35;1710124;82;26154;-78
2021/01/04 00:03:17;;;;;;;41.50;20.08;;;;;;;1.93;87.10;100713.37;1711487;82;25844;-77
2021/01/04 00:06:26;;;;;;;45.25;21.23;;;;;;;1.92;87.04;100714.35;1709633;82;26137;-77
2021/01/04 00:09:17;;;;;;;45.60;19.62;;;;;;;1.93;87.13;100714.69;1689912;83;26533;-78
2021/01/04 00:11:50;;;;;;;;;;;;;;;1.94;87.16;100709.78;1688322;83;27576;-78
2021/01/04 00:14:43;;;;;;;48.87;22.30;;;;;;;1.96;87.26;100706.52;1708885;82;25755;-78
2021/01/04 00:17:40;;;;;;;50.03;23.22;;;;;;;1.95;87.26;100707.95;1698569;83;26404;-78
2021/01/04 00:20:39;;;;;;;51.50;22.98;;;;;;;1.94;87.29;100705.81;1699389;82;26480;-78
2021/01/04 00:23:27;;;;;;;47.55;21.70;;;;;;;1.95;87.35;100704.83;1681892;84;25905;-77
2021/01/04 00:26:08;;;;;;;44.13;20.25;;;;;;;2.01;87.28;100709.59;1837101;77;25709;-78
2021/01/04 00:28:37;;;;;;;51.45;23.05;;;;;;;1.98;87.40;100709.87;1788518;79;26106;-78
2021/01/04 00:31:16;;;;;;;52.98;23.10;;;;;;;1.99;87.35;100703.61;1743634;79;28484;-78
2021/01/04 00:33:49;;;;;;;48.13;22.10;;;;;;;2.01;87.39;100708.78;1734731;79;25786;-78
2021/01/04 00:36:30;;;;;;;44.73;21.33;;;;;;;2.01;87.38;100696.89;1753900;80;26419;-78
2021/01/04 00:39:34;;;;;;;48.10;22.82;;;;;;;2.03;87.39;100701.05;1700838;82;25858;-78
2021/01/04 00:42:26;;;;;;;53.35;23.38;;;;;;;2.06;87.39;100705.25;1719230;82;25781;-78
2021/01/04 00:45:26;;;;;;;48.50;22.40;;;;;;;2.03;87.41;100706.84;1684939;81;28483;-79
2021/01/04 00:48:25;;;;;;;52.13;22.58;;;;;;;2.06;87.50;100703.92;1742429;81;25778;-77
2021/01/04 00:51:04;;;;;;;53.30;22.62;;;;;;;2.05;87.48;100707.55;1725414;82;25788;-78
2021/01/04 00:53:39;;;;;;;50.33;21.45;;;;;;;2.05;87.55;100703.08;1724101;82;26339;-77
2021/01/04 00:56:24;;;;;;;46.98;20.43;;;;;;;2.06;87.54;100699.48;1698342;81;25366;-78
2021/01/04 00:59:30;;;;;;;54.30;23.20;;;;;;;2.05;87.48;100698.30;1697791;81;27331;-78
2021/01/04 01:02:09;;;;;;;59.58;26.37;;;;;;;2.05;87.61;100694.34;1743251;81;25772;-78
2021/01/04 01:04:48;;;;;;;56.10;24.57;;;;;;;2.07;87.70;100699.86;1704729;81;25951;-78
2021/01/04 01:07:40;;;;;;;46.80;20.57;;;;;;;2.09;87.60;100686.50;1716060;81;25876;-78
2021/01/04 01:10:10;;;;;;;51.53;23.45;;;;;;;2.06;87.61;100691.56;1700511;81;26445;-78
2021/01/04 01:12:59;;;;;;;46.95;20.90;;;;;;;2.05;87.74;100697.80;1722063;81;27599;-78
2021/01/04 01:15:37;;;;;;;54.75;24.82;;;;;;;2.03;87.69;100689.16;1715316;82;26160;-78
2021/01/04 01:18:34;;;;;;;51.15;23.52;;;;;;;2.04;87.79;100693.50;1707380;81;25857;-78
2021/01/04 01:21:06;;;;;;;46.30;21.17;;;;;;;2.05;87.84;100696.47;1718692;81;26079;-78
2021/01/04 01:23:37;;;;;;;51.80;23.95;;;;;;;2.07;87.89;100696.37;1750582;81;26291;-78
2021/01/04 01:26:32;;;;;;;50.80;21.87;;;;;;;2.07;87.86;100694.57;1686887;83;26888;-78
2021/01/04 01:29:17;;;;;;;52.15;23.52;;;;;;;2.10;87.84;100689.48;1691153;83;26018;-77
2021/01/04 01:32:16;;;;;;;59.27;26.90;;;;;;;2.13;87.92;100691.41;1679629;83;25857;-78
2021/01/04 01:34:57;;;;;;;47.95;21.77;;;;;;;2.16;87.91;100693.77;1714408;83;26166;-78
2021/01/04 01:37:50;;;;;;;55.12;24.63;;;;;;;2.23;87.83;100689.63;1834055;77;25819;-78
2021/01/04 01:40:56;;;;;;;52.50;24.20;;;;;;;2.17;87.87;100694.13;1789484;80;25852;-77
2021/01/04 01:44:00;;;;;;;52.85;24.60;;;;;;;2.18;87.92;100689.18;1679541;83;27549;-78
2021/01/04 01:46:39;;;;;;;48.45;22.93;;;;;;;2.18;87.89;100687.05;1763267;80;25828;-78
2021/01/04 01:49:34;;;;;;;54.95;22.80;;;;;;;2.18;87.95;100681.25;1757989;80;25848;-77
2021/01/04 01:52:25;;;;;;;48.48;23.02;;;;;;;2.18;87.97;100678.61;1782823;80;25765;-78
2021/01/04 01:55:16;;;;;;;49.45;21.50;;;;;;;2.17;88.00;100674.31;1759885;80;25789;-78
2021/01/04 01:58:09;;;;;;;53.42;23.62;;;;;;;2.16;88.03;100666.53;1754898;80;27609;-78
2021/01/04 02:00:51;;;;;;;45.80;21.25;;;;;;;2.17;88.09;100678.75;1760086;80;25904;-78
2021/01/04 02:03:42;;;;;;;53.35;23.85;;;;;;;2.16;88.15;100684.52;1787955;80;25773;-78
2021/01/04 02:06:42;;;;;;;49.03;23.45;;;;;;;2.19;88.24;100679.45;1759245;80;25735;-78
2021/01/04 02:09:29;;;;;;;41.53;19.47;;;;;;;2.22;88.19;100675.24;1759139;80;26488;-78
2021/01/04 02:12:26;;;;;;;45.25;20.05;;;;;;;2.22;88.28;100683.98;1763036;79;27051;-78
2021/01/04 02:15:21;;;;;;;54.25;22.10;;;;;;;2.21;88.21;100681.00;1790276;80;25734;-78
2021/01/04 02:18:33;;;;;;;49.23;22.70;;;;;;;2.19;88.23;100681.63;1763430;80;26081;-78
2021/01/04 02:21:18;;;;;;;45.67;21.55;;;;;;;2.19;88.26;100680.78;1761254;80;26108;-77
2021/01/04 02:24:14;;;;;;;46.13;22.35;;;;;;;2.19;88.36;100677.66;1762842;80;25839;-77
2021/01/04 02:27:05;;;;;;;45.85;21.57;;;;;;;2.21;88.34;100681.00;1753555;80;27392;-78
2021/01/04 02:29:33;;;;;;;47.43;21.45;;;;;;;2.23;88.40;100675.58;1790064;80;26390;-78
2021/01/04 02:32:04;;;;;;;53.48;25.32;;;;;;;2.23;88.43;100679.55;1711897;80;25846;-78
2021/01/04 02:34:37;;;;;;;37.30;18.57;;;;;;;2.26;88.50;100671.36;1731494;80;25785;-78
2021/01/04 02:37:05;;;;;;;46.53;19.60;;;;;;;2.29;88.43;100675.89;1763067;80;26203;-78
2021/01/04 02:39:57;;;;;;;52.33;22.80;;;;;;;2.28;88.35;100670.27;1780188;80;27607;-78
2021/01/04 02:42:47;;;;;;;44.03;21.30;;;;;;;2.28;88.39;100664.98;1763235;80;25976;-77
2021/01/04 02:45:22;;;;;;;45.52;21.15;;;;;;;2.31;88.41;100668.66;1733713;80;25842;-77
2021/01/04 02:48:17;;;;;;;46.53;21.37;;;;;;;2.32;88.37;100672.15;1762915;80;26772;-78
2021/01/04 02:51:13;;;;;;;52.45;22.17;;;;;;;2.33;88.35;100673.84;1783711;80;26001;-78
2021/01/04 02:54:13;;;;;;;43.15;22.05;;;;;;;2.33;88.36;100672.01;1756591;80;27482;-78
2021/01/04 02:57:05;;;;;;;41.17;19.07;;;;;;;2.34;88.40;100676.34;1762903;80;26397;-78
2021/01/04 02:59:51;;;;;;;46.42;20.57;;;;;;;2.33;88.39;100672.52;1761826;80;26464;-78
2021/01/04 03:02:33;;;;;;;49.03;23.22;;;;;;;2.32;88.42;100666.39;1781367;80;25658;-78
2021/01/04 03:05:00;;;;;;;44.53;21.73;;;;;;;2.32;88.43;100668.19;1762708;80;25639;-77
2021/01/04 03:07:35;;;;;;;42.75;21.10;;;;;;;2.33;88.48;100668.55;1763018;80;27529;-78
2021/01/04 03:10:16;;;;;;;34.08;16.50;;;;;;;2.32;88.46;100665.06;1762252;80;25864;-78
2021/01/04 03:12:49;;;;;;;44.63;20.88;;;;;;;2.31;88.54;100663.86;1779738;80;25767;-78
2021/01/04 03:15:46;;;;;;;43.02;18.35;;;;;;;2.29;88.54;100667.96;1779712;80;26409;-78
2021/01/04 03:18:43;;;;;;;42.58;19.52;;;;;;;2.30;88.73;100663.52;1788464;80;26111;-78
2021/01/04 03:21:13;;;;;;;42.10;18.87;;;;;;;2.31;88.62;100662.05;1729171;82;27536;-77
2021/01/04 03:23:49;;;;;;;38.90;18.77;;;;;;;2.31;88.63;100667.34;1761141;80;25757;-78
2021/01/04 03:26:24;;;;;;;44.93;19.95;;;;;;;2.30;88.64;100665.69;1737768;80;26065;-78
2021/01/04 03:29:00;;;;;;;36.90;16.82;;;;;;;2.33;88.72;100657.47;1819572;77;25663;-77
2021/01/04 03:31:27;;;;;;;39.08;19.02;;;;;;;2.28;88.79;100661.02;1783635;79;25864;-78
2021/01/04 03:33:54;;;;;;;38.08;17.67;;;;;;;2.26;88.79;100653.71;1763651;79;27587;-78
2021/01/04 03:36:22;;;;;;;38.25;17.55;;;;;;;2.27;88.85;100652.72;1759087;80;26098;-78
2021/01/04 03:38:49;;;;;;;39.92;18.20;;;;;;;2.25;88.90;100653.34;1762256;80;25832;-78
2021/01/04 03:41:19;;;;;;;38.40;17.37;;;;;;;2.25;88.90;100656.46;1760578;78;26581;-78
2021/01/04 03:43:46;;;;;;;38.15;16.93;;;;;;;2.25;88.97;100657.78;1765737;80;26069;-77
2021/01/04 03:46:13;;;;;;;35.20;17.57;;;;;;;2.24;89.07;100662.26;1750442;78;27660;-79
2021/01/04 03:48:41;;;;;;;37.88;16.17;;;;;;;2.24;89.02;100657.45;1744699;78;25947;-78
2021/01/04 03:51:10;;;;;;;38.30;17.15;;;;;;;2.23;89.10;100656.61;1758085;80;25862;-78
2021/01/04 03:53:42;;;;;;;41.30;18.55;;;;;;;2.23;89.10;100662.37;1791738;78;25846;-78
2021/01/04 03:56:18;;;;;;;38.73;16.70;;;;;;;2.23;89.13;100659.25;1747305;80;25814;-77
2021/01/04 03:58:45;;;;;;;39.70;17.98;;;;;;;2.21;89.39;100665.15;1754265;80;28542;-78
2021/01/04 04:01:13;;;;;;;37.60;17.00;;;;;;;2.21;89.21;100657.70;1787619;78;25814;-78
2021/01/04 04:03:41;;;;;;;39.50;17.20;;;;;;;2.22;89.23;100666.80;1783962;78;25781;-78
2021/01/04 04:06:12;;;;;;;37.70;18.25;;;;;;;2.25;89.29;100667.87;1689061;80;26345;-78
2021/01/04 04:08:42;;;;;;;41.85;19.35;;;;;;;2.27;89.21;100673.02;1745012;78;25773;-78
2021/01/04 04:11:14;;;;;;;43.35;19.07;;;;;;;2.28;89.22;100674.23;1763538;80;27314;-78
2021/01/04 04:13:42;;;;;;;45.12;19.00;;;;;;;2.29;89.19;100671.08;1781207;78;25814;-78
2021/01/04 04:16:09;;;;;;;35.98;16.62;;;;;;;2.32;89.21;100677.44;1738288;80;25827;-78
2021/01/04 04:18:37;;;;;;;35.10;16.70;;;;;;;2.34;89.19;100680.78;1786636;78;25812;-78
2021/01/04 04:21:05;;;;;;;38.53;18.82;;;;;;;2.32;89.14;100686.21;1754468;78;25928;-78
2021/01/04 04:23:32;;;;;;;43.28;17.98;;;;;;;2.34;89.16;100692.68;1794208;78;27660;-79
2021/01/04 04:25:59;;;;;;;47.60;19.90;;;;;;;2.39;89.17;100693.12;1750612;78;25799;-78
2021/01/04 04:28:27;;;;;;;42.45;19.25;;;;;;;2.40;89.11;100683.38;1761761;78;25814;-77
2021/01/04 04:30:54;;;;;;;39.10;18.45;;;;;;;2.41;89.10;100693.83;1760353;80;25889;-78
2021/01/04 04:33:22;;;;;;;37.20;17.55;;;;;;;2.40;89.02;100686.86;1791647;78;25832;-78
2021/01/04 04:35:51;;;;;;;43.45;20.43;;;;;;;2.43;89.12;100690.57;1753717;78;27682;-78
2021/01/04 04:38:19;;;;;;;46.77;19.60;;;;;;;2.42;89.02;100686.75;1746303;80;26142;-78
2021/01/04 04:40:49;;;;;;;45.45;21.17;;;;;;;2.42;89.07;100686.75;1768504;78;26128;-78
2021/01/04 04:43:37;;;;;;;43.98;18.73;;;;;;;2.45;89.10;100688.63;1789482;78;26409;-78
2021/01/04 04:46:09;;;;;;;39.50;17.50;;;;;;;2.47;89.05;100691.98;1762609;78;25843;-78
2021/01/04 04:48:44;;;;;;;41.05;18.95;;;;;;;2.46;89.04;100694.25;1741798;80;27552;-78
2021/01/04 04:51:26;;;;;;;47.83;20.57;;;;;;;2.45;89.02;100693.08;1751739;80;25919;-78
2021/01/04 04:54:23;;;;;;;43.92;19.50;;;;;;;2.44;89.02;100694.06;1756896;79;25914;-79
2021/01/04 04:57:38;;;;;;;44.00;18.73;;;;;;;2.43;89.04;100695.02;1785139;79;25745;-78
2021/01/04 05:00:22;;;;;;;39.90;18.50;;;;;;;2.41;89.09;100697.80;1750331;80;26381;-78
2021/01/04 05:03:17;;;;;;;43.23;19.37;;;;;;;2.39;89.18;100693.12;1757036;80;27317;-78
2021/01/04 05:06:02;;;;;;;50.00;21.12;;;;;;;2.39;89.24;100697.09;1787233;78;25662;-78
2021/01/04 05:08:55;;;;;;;43.50;18.90;;;;;;;2.41;89.28;100699.59;1755182;80;25772;-78
2021/01/04 05:11:28;;;;;;;44.08;19.82;;;;;;;2.40;89.33;100700.08;1757328;80;26481;-78
2021/01/04 05:13:57;;;;;;;41.55;18.82;;;;;;;2.41;89.35;100703.08;1761780;80;25758;-79
2021/01/04 05:16:59;;;;;;;43.15;18.65;;;;;;;2.43;89.34;100708.23;1791110;78;27511;-78
2021/01/04 05:19:54;;;;;;;47.33;19.48;;;;;;;2.42;89.33;100702.61;1790768;78;26004;-79
2021/01/04 05:22:49;;;;;;;45.85;20.20;;;;;;;2.40;89.32;100701.87;1753949;80;25740;-78
2021/01/04 05:25:47;;;;;;;50.05;21.10;;;;;;;2.42;89.42;100704.74;1780886;79;25807;-78
2021/01/04 05:28:37;;;;;;;49.13;19.67;;;;;;;2.43;89.42;100701.63;1786626;78;25946;-78
2021/01/04 05:31:26;;;;;;;;;;;;;;;2.42;89.42;100713.99;1704002;82;28489;-78
2021/01/04 05:34:24;;;;;;;41.60;18.32;;;;;;;2.42;89.50;100710.54;1709271;82;25736;-78
2021/01/04 05:37:22;;;;;;;47.98;22.15;;;;;;;2.42;89.55;100714.50;1700012;82;25893;-77
2021/01/04 05:40:15;;;;;;;52.93;23.32;;;;;;;2.44;89.59;100717.34;1690168;82;25764;-78
2021/01/04 05:43:06;;;;;;;46.13;20.60;;;;;;;2.48;89.58;100723.22;1719663;82;25773;-78
2021/01/04 05:46:17;;;;;;;52.70;23.22;;;;;;;2.48;89.49;100720.58;1704796;82;27698;-78
2021/01/04 05:49:14;;;;;;;47.78;19.70;;;;;;;2.49;89.54;100728.37;1708103;81;25974;-78
2021/01/04 05:51:46;;;;;;;54.08;22.10;;;;;;;2.49;89.47;100730.17;1695571;83;26418;-78
2021/01/04 05:54:17;;;;;;;45.40;20.72;;;;;;;2.49;89.48;100734.98;1710324;81;25866;-78
2021/01/04 05:56:45;;;;;;;41.68;20.30;;;;;;;2.51;89.47;100726.91;1706487;82;26032;-78
2021/01/04 05:59:15;;;;;;;39.58;19.82;;;;;;;2.49;89.46;100728.37;1703905;82;27486;-79
2021/01/04 06:01:45;;;;;;;50.98;23.25;;;;;;;2.46;89.45;100723.84;1694202;81;26384;-77
2021/01/04 06:04:26;;;;;;;43.70;19.80;;;;;;;2.47;89.51;100730.78;1703664;82;25838;-78
2021/01/04 06:06:59;;;;;;;47.43;21.55;;;;;;;2.48;89.52;100728.52;1714323;82;25853;-78
2021/01/04 06:09:26;;;;;;;49.20;22.20;;;;;;;2.50;89.55;100731.38;1717808;81;25776;-78
2021/01/04 06:11:58;;;;;;;49.60;24.37;;;;;;;2.53;89.52;100734.22;1705759;82;28523;-78
2021/01/04 06:14:37;;;;;;;44.65;19.62;;;;;;;2.56;89.57;100728.68;1744423;80;26396;-78
2021/01/04 06:17:29;;;;;;;52.90;24.35;;;;;;;2.58;89.49;100736.84;1747582;80;25788;-78
2021/01/04 06:20:18;;;;;;;54.83;23.50;;;;;;;2.60;89.50;100734.05;1704857;82;25843;-78
2021/01/04 06:22:46;;;;;;;46.08;20.35;;;;;;;2.63;89.51;100741.73;1713730;82;26564;-78
2021/01/04 06:25:16;;;;;;;44.18;21.80;;;;;;;2.62;89.40;100739.56;1724053;81;27799;-78
2021/01/04 06:27:48;;;;;;;50.50;22.82;;;;;;;2.64;89.42;100741.59;1704106;82;26352;-78
2021/01/04 06:30:35;;;;;;;46.40;22.27;;;;;;;2.63;89.39;100741.22;1689304;83;25758;-78
2021/01/04 06:33:16;;;;;;;49.20;22.73;;;;;;;2.64;89.37;100746.03;1704321;81;25914;-78
2021/01/04 06:35:43;;;;;;;;;;;;;;;2.63;89.43;100746.52;1715867;82;25851;-78
2021/01/04 06:38:27;;;;;;;53.75;20.90;;;;;;;2.63;89.41;100737.25;1709106;81;27338;-78
2021/01/04 06:40:55;;;;;;;48.13;22.05;;;;;;;2.62;89.46;100739.56;1708748;83;26066;-78
2021/01/04 06:43:33;;;;;;;46.37;21.42;;;;;;;2.62;89.44;100736.08;1688246;83;26468;-78
2021/01/04 06:46:58;;;;;;;44.05;19.40;;;;;;;2.65;89.42;100730.53;1804958;77;25626;-78
2021/01/04 06:49:31;;;;;;;49.42;20.70;;;;;;;2.59;89.52;100727.92;1723339;80;25883;-78
2021/01/04 06:52:21;;;;;;;44.95;19.00;;;;;;;2.57;89.57;100726.38;1746718;80;27607;-77
2021/01/04 06:55:32;;;;;;;48.48;21.52;;;;;;;2.60;89.55;100723.48;1793375;79;25814;-78
2021/01/04 06:58:17;;;;;;;47.00;21.85;;;;;;;2.55;89.64;100730.48;1724131;80;25886;-78
2021/01/04 07:01:25;;;;;;;41.90;21.25;;;;;;;2.57;89.71;100731.66;1681711;83;28540;-78
2021/01/04 07:04:33;;;;;;;45.92;20.92;;;;;;;2.57;89.71;100726.38;1649545;83;26483;-78
2021/01/04 07:07:27;;;;;;;45.65;22.90;;;;;;;2.57;89.72;100729.86;1665067;83;26399;-78
2021/01/04 07:10:15;;;;;;;41.83;21.77;;;;;;;2.56;89.75;100738.78;1647931;83;25845;-78
2021/01/04 07:12:53;;;;;;;36.53;19.15;;;;;;;2.60;89.75;100738.02;1677141;83;25774;-78
2021/01/04 07:15:30;;;;;;;46.30;22.07;;;;;;;2.59;89.69;100736.36;1649254;83;27620;-78
2021/01/04 07:18:29;;;;;;;44.70;21.00;;;;;;;2.59;89.77;100742.46;1651423;85;25829;-78
2021/01/04 07:21:08;;;;;;;38.13;19.17;;;;;;;2.60;89.74;100736.22;1651992;84;25904;-78
2021/01/04 07:23:59;;;;;;;43.98;21.48;;;;;;;2.62;89.74;100734.75;1679774;83;25756;-78
2021/01/04 07:26:55;;;;;;;45.28;21.23;;;;;;;2.60;89.72;100739.34;1654383;84;26068;-78
2021/01/04 07:29:51;;;;;;;49.15;23.18;;;;;;;2.62;89.77;100740.89;1653870;84;28462;-79
2021/01/04 07:32:41;;;;;;;42.15;18.70;;;;;;;2.61;89.74;100737.06;1668037;83;25890;-78
2021/01/04 07:35:27;;;;;;;45.90;21.17;;;;;;;2.60;89.77;100732.25;1680515;83;25875;-78
2021/01/04 07:38:16;;;;;;;43.23;21.15;;;;;;;2.61;89.81;100732.59;1666840;83;25924;-78
2021/01/04 07:41:07;;;;;;;50.03;23.27;;;;;;;2.63;89.84;100732.48;1680097;84;26045;-78
2021/01/04 07:43:59;;;;;;;38.53;19.45;;;;;;;2.67;89.87;100737.84;1678506;83;27924;-78
2021/01/04 07:46:54;;;;;;;39.80;19.17;;;;;;;2.66;89.83;100737.48;1679839;85;25767;-77
2021/01/04 07:49:48;;;;;;;44.10;21.45;;;;;;;2.66;89.80;100737.48;1662989;84;26540;-78
2021/01/04 07:53:01;;;;;;;43.10;19.23;;;;;;;2.66;89.82;100734.84;1665986;85;26487;-78
2021/01/04 07:55:58;;;;;;;44.95;21.55;;;;;;;2.67;89.82;100740.49;1625971;85;26420;-78
2021/01/04 07:58:41;;;;;;;48.13;21.75;;;;;;;2.67;89.85;100740.02;1595516;89;27565;-78
2021/01/04 08:01:39;;;;;;;42.45;20.77;;;;;;;2.68;89.92;100740.35;1637767;86;25836;-78
2021/01/04 08:04:46;;;;;;;39.98;20.00;;;;;;;2.69;89.88;100730.62;1698598;80;25418;-78
2021/01/04 08:07:40;;;;;;;48.10;23.50;;;;;;;2.70;89.86;100726.98;1740646;80;25895;-78
2021/01/04 08:10:19;;;;;;;43.50;22.32;;;;;;;2.71;89.93;100727.36;1660090;82;25732;-77
2021/01/04 08:13:31;;;;;;;41.35;20.10;;;;;;;2.72;89.91;100740.91;1737940;80;28583;-78
2021/01/04 08:16:01;;;;;;;;;;;;;;;2.72;89.87;100735.63;1664903;84;26154;-78
2021/01/04 08:18:32;;;;;;;44.73;21.50;;;;;;;2.73;89.95;100741.28;1670135;83;25837;-78
2021/01/04 08:21:19;;;;;;;44.83;18.73;;;;;;;2.73;90.03;100747.89;1638147;84;27083;-78
2021/01/04 08:24:11;;;;;;;46.60;22.42;;;;;;;2.74;90.01;100749.07;1677205;85;25846;-79
2021/01/04 08:27:07;;;;;;;43.05;20.65;;;;;;;2.77;89.96;100750.62;1659950;84;27546;-78
2021/01/04 08:29:59;;;;;;;44.83;22.55;;;;;;;2.78;89.93;100749.16;1665199;83;25931;-78
2021/01/04 08:33:06;;;;;;;39.30;19.90;;;;;;;2.79;89.92;100759.25;1653056;85;25884;-78
2021/01/04 08:35:39;;;;;;;41.65;22.10;;;;;;;2.80;89.86;100767.56;1676631;83;25808;-77
2021/01/04 08:38:30;;;;;;;38.20;21.35;;;;;;;2.81;89.86;100762.13;1650177;85;26471;-78
2021/01/04 08:41:24;;;;;;;45.55;22.05;;;;;;;2.81;89.87;100762.13;1650143;85;26479;-78
2021/01/04 08:43:53;;;;;;;47.20;22.85;;;;;;;2.82;89.91;100763.78;1656079;83;25933;-78
2021/01/04 08:46:28;;;;;;;46.75;22.48;;;;;;;2.85;89.90;100766.17;1633468;83;25861;-78
2021/01/04 08:49:16;;;;;;;47.15;23.45;;;;;;;2.89;89.89;100770.70;1656819;85;25884;-78
2021/01/04 08:51:46;;;;;;;53.45;24.50;;;;;;;2.93;89.97;100778.75;1647604;85;25971;-78
2021/01/04 08:54:27;;;;;;;47.43;24.63;;;;;;;2.95;89.85;100774.98;1643008;83;28646;-78
2021/01/04 08:57:15;;;;;;;54.30;25.23;;;;;;;2.99;89.85;100782.19;1697073;83;25937;-78
2021/01/04 08:59:59;;;;;;;47.88;24.70;;;;;;;3.03;89.83;100788.40;1671511;83;25939;-78
2021/01/04 09:02:41;;;;;;;47.53;24.47;;;;;;;3.05;89.73;100787.78;1670214;83;25885;-78
2021/01/04 09:05:13;;;;;;;48.63;24.43;;;;;;;3.08;89.67;100793.27;1651333;83;25813;-78
2021/01/04 09:07:53;;;;;;;53.10;26.52;;;;;;;3.09;89.56;100793.15;1672261;83;28469;-78
2021/01/04 09:10:34;;;;;;;44.35;23.20;;;;;;;3.11;89.57;100793.85;1662241;84;26491;-78
2021/01/04 09:13:29;;;;;;;49.80;25.10;;;;;;;3.13;89.50;100797.67;1667119;84;26573;-78
2021/01/04 09:15:56;;;;;;;47.98;24.47;;;;;;;3.14;89.53;100800.69;1651845;83;25921;-78
2021/01/04 09:18:35;;;;;;;54.13;27.10;;;;;;;3.18;89.58;100794.63;1672510;83;25893;-78
2021/01/04 09:21:26;;;;;;;47.73;23.67;;;;;;;3.20;89.59;100795.33;1673617;83;27648;-78
2021/01/04 09:24:07;;;;;;;49.63;23.83;;;;;;;3.23;89.56;100795.89;1669506;83;32651;-78
2021/01/04 09:26:39;;;;;;;44.48;23.90;;;;;;;3.27;89.57;100791.18;1703382;82;25772;-78
2021/01/04 09:29:27;;;;;;;54.40;25.97;;;;;;;3.29;89.48;100798.50;1659386;83;26541;-78
2021/01/04 09:32:00;;;;;;;57.60;29.65;;;;;;;3.30;89.50;100788.25;1663051;84;25830;-78
2021/01/04 09:34:31;;;;;;;61.50;31.73;;;;;;;3.35;89.59;100796.16;1716563;82;27328;-78
2021/01/04 09:37:16;;;;;;;61.08;30.27;;;;;;;3.39;89.47;100804.64;1638129;83;33028;-78
2021/01/04 09:39:43;;;;;;;60.55;30.45;;;;;;;3.41;89.41;100796.08;1691059;84;25391;-79
2021/01/04 09:42:28;;;;;;;57.35;29.80;;;;;;;3.44;89.32;100800.64;1682440;84;26256;-78
2021/01/04 09:44:59;;;;;;;54.03;29.07;;;;;;;3.46;89.30;100800.49;1639545;84;25862;-78
2021/01/04 09:47:35;;;;;;;51.58;26.37;;;;;;;3.48;89.26;100800.71;1647495;84;27680;-78
2021/01/04 09:50:07;;;;;;;56.90;30.43;;;;;;;3.53;89.20;100806.93;1684314;83;25831;-78
2021/01/04 09:52:48;;;;;;;53.95;28.80;;;;;;;3.54;89.15;100804.13;1644994;83;25799;-78
2021/01/04 09:55:21;;;;;;;54.55;27.35;;;;;;;3.59;89.20;100799.75;1666857;84;26550;-78
2021/01/04 09:57:49;;;;;;;60.33;29.42;;;;;;;3.64;89.04;100801.48;1654142;84;26473;-78
2021/01/04 10:00:24;;;;;;;63.13;30.37;;;;;;;3.66;89.05;100789.78;1654217;84;28220;-79
2021/01/04 10:03:18;;;;;;;53.92;27.98;;;;;;;3.70;89.00;100789.85;1678671;83;25831;-78
2021/01/04 10:05:49;;;;;;;55.75;29.27;;;;;;;3.74;88.88;100794.41;1689791;82;25960;-78
2021/01/04 10:08:27;;;;;;;52.17;26.85;;;;;;;3.75;88.89;100796.91;1688741;82;26844;-78
2021/01/04 10:11:07;;;;;;;51.85;27.17;;;;;;;3.79;88.67;100793.48;1682465;84;25786;-78
2021/01/04 10:13:39;;;;;;;52.65;26.60;;;;;;;3.80;88.73;100793.37;1681125;84;27691;-78
2021/01/04 10:16:18;;;;;;;55.65;26.45;;;;;;;3.83;88.62;100788.25;1632387;84;26099;-78
2021/01/04 10:19:10;;;;;;;55.90;27.37;;;;;;;3.84;88.67;100789.46;1648480;85;25755;-78
2021/01/04 10:21:52;;;;;;;56.70;27.95;;;;;;;3.86;88.59;100787.50;1690348;84;26447;-78
2021/01/04 10:24:28;;;;;;;58.33;29.02;;;;;;;3.89;88.59;100784.56;1646683;85;25855;-77
2021/01/04 10:27:02;;;;;;;64.05;32.08;;;;;;;3.93;88.54;100789.59;1671116;83;27080;-78
2021/01/04 10:29:31;;;;;;;57.35;27.80;;;;;;;3.97;88.66;100783.88;1672193;84;26109;-78
2021/01/04 10:32:28;;;;;;;62.88;30.27;;;;;;;4.00;88.61;100782.25;1669103;84;25855;-78
2021/01/04 10:34:56;;;;;;;59.33;29.42;;;;;;;4.01;88.37;100782.61;1662374;83;26247;-77
2021/01/04 10:37:32;;;;;;;62.83;30.20;;;;;;;4.02;88.43;100774.19;1656729;83;26428;-78
2021/01/04 10:40:04;;;;;;;71.12;31.95;;;;;;;4.02;88.34;100774.19;1658508;84;27611;-78
2021/01/04 10:42:43;;;;;;;58.23;28.32;;;;;;;4.07;88.35;100769.27;1790571;79;25644;-78
2021/01/04 10:45:15;;;;;;;63.80;29.37;;;;;;;4.08;88.40;100773.62;1735714;80;25778;-78
2021/01/04 10:48:00;;;;;;;59.60;30.65;;;;;;;4.12;88.41;100772.35;1738907;80;27600;-78
2021/01/04 10:50:37;;;;;;;64.30;30.85;;;;;;;4.17;88.52;100769.61;1740892;80;25900;-78
2021/01/04 10:53:13;;;;;;;59.95;29.75;;;;;;;4.23;88.48;100772.20;1734567;80;25764;-78
2021/01/04 10:56:10;;;;;;;64.45;30.60;;;;;;;4.27;88.21;100770.94;1760624;80;25833;-78
2021/01/04 10:59:09;;;;;;;58.70;27.50;;;;;;;4.30;88.16;100764.84;1746610;80;25687;-78
2021/01/04 11:01:41;;;;;;;65.97;32.67;;;;;;;4.33;88.09;100761.08;1730940;80;26948;-78
2021/01/04 11:04:16;;;;;;;65.47;33.20;;;;;;;4.35;88.18;100760.45;1741384;80;26150;-77
2021/01/04 11:06:48;;;;;;;61.48;30.95;;;;;;;4.41;87.99;100769.16;1767151;80;26034;-78
2021/01/04 11:09:29;;;;;;;68.47;34.30;;;;;;;4.40;87.89;100760.38;1723815;82;25885;-78
2021/01/04 11:12:14;;;;;;;63.52;29.70;;;;;;;4.41;87.64;100762.52;1714350;81;25940;-78
2021/01/04 11:14:57;;;;;;;67.27;32.83;;;;;;;4.37;87.37;100761.98;1658747;83;28568;-78
2021/01/04 11:17:30;;;;;;;66.72;31.73;;;;;;;4.38;87.57;100760.17;1714355;81;25955;-78
2021/01/04 11:20:11;;;;;;;57.93;26.82;;;;;;;4.41;87.42;100757.22;1729795;81;25701;-78
2021/01/04 11:22:40;;;;;;;64.07;31.68;;;;;;;4.40;87.34;100753.75;1705056;83;25797;-77
2021/01/04 11:25:11;;;;;;;61.85;32.13;;;;;;;4.42;87.40;100754.45;1670215;83;25883;-78
2021/01/04 11:27:39;;;;;;;59.48;27.52;;;;;;;4.47;87.46;100746.88;1700298;82;27146;-77
2021/01/04 11:30:07;;;;;;;65.10;30.27;;;;;;;4.49;87.27;100744.09;1715564;81;25784;-78
2021/01/04 11:32:35;;;;;;;60.33;28.25;;;;;;;4.48;87.23;100749.04;1641647;84;25785;-78
2021/01/04 11:35:03;;;;;;;55.45;27.67;;;;;;;4.45;86.94;100743.53;1701800;82;25824;-78
2021/01/04 11:37:30;;;;;;;53.65;26.30;;;;;;;4.44;87.06;100742.36;1712298;82;26345;-78
2021/01/04 11:39:58;;;;;;;59.13;28.87;;;;;;;4.43;86.85;100732.71;1730266;82;27524;-78
2021/01/04 11:42:25;;;;;;;64.72;29.67;;;;;;;4.41;86.79;100730.70;1650278;83;25919;-78
2021/01/04 11:44:53;;;;;;;56.50;26.55;;;;;;;4.37;86.99;100732.81;1665280;83;25988;-78
2021/01/04 11:47:20;;;;;;;54.27;26.42;;;;;;;4.38;86.87;100744.27;1657992;83;26173;-78
2021/01/04 11:49:48;;;;;;;54.67;26.42;;;;;;;4.38;87.06;100740.28;1702346;83;26172;-78
2021/01/04 11:52:15;;;;;;;64.17;29.35;;;;;;;4.37;86.91;100734.14;1636580;84;28456;-78
2021/01/04 11:54:44;;;;;;;60.10;28.90;;;;;;;4.36;86.91;100739.08;1630169;84;25885;-78
2021/01/04 11:57:13;;;;;;;58.38;30.02;;;;;;;4.36;86.99;100739.08;1652690;84;25861;-78
2021/01/04 11:59:40;;;;;;;60.10;29.75;;;;;;;4.40;87.08;100736.52;1676961;84;26265;-78
2021/01/04 12:02:08;;;;;;;57.30;28.50;;;;;;;4.43;87.00;100734.88;1644119;84;25929;-78
2021/01/04 12:04:36;;;;;;;64.97;31.02;;;;;;;4.45;86.87;100736.05;1656586;84;27561;-78
2021/01/04 12:07:03;;;;;;;56.50;27.30;;;;;;;4.46;86.95;100736.42;1684904;84;26270;-77
2021/01/04 12:09:31;;;;;;;58.40;28.52;;;;;;;4.49;86.84;100733.48;1675292;84;25872;-78
2021/01/04 12:11:59;;;;;;;50.43;27.60;;;;;;;4.49;86.76;100730.84;1652765;84;25804;-78
2021/01/04 12:14:26;;;;;;;61.55;27.40;;;;;;;4.48;86.56;100728.66;1647513;84;25910;-78
2021/01/04 12:16:54;;;;;;;55.28;28.05;;;;;;;4.45;86.57;100725.45;1672468;84;27406;-78
2021/01/04 12:19:21;;;;;;;58.80;29.52;;;;;;;4.47;86.71;100728.30;1683483;84;26654;-78
2021/01/04 12:21:48;;;;;;;56.42;26.23;;;;;;;4.46;86.65;100726.65;1666284;84;26702;-78
2021/01/04 12:24:16;;;;;;;55.52;28.55;;;;;;;4.47;86.48;100725.66;1649233;84;26055;-78